Weather at Heck Field Airport

Public forecast

Using degrees Celsius for public forecast. Weather courtesy of forecast.io.

Closest aviation weather report (METAR) to Heck Field Airport

Closest report is Gold Coast Airport, 25.4 nm (47.0 km) SSE. Retrieved 2021/11/30 14:30 UTC (9 minutes ago):

YBCG 301430Z AUTO 18002KT 9999 // BKN017 OVC095 21/20 Q1012

Closest aviation forecast (TAF) to Heck Field Airport

Closest forecast is Gold Coast Airport, 25.4 nm (47.0 km) SSE. Retrieved 2021/11/30 15:00 UTC (0 seconds ago):

TAF YBCG 301401Z 3015/0112 03006KT 8000 -SHRA SCT012 BKN018 FM010100 16008KT 9999 -SHRA SCT015 BKN025 TEMPO 3015/3018 3000 SHRA BKN008 INTER 3018/0103 3000 SHRA BKN008 TEMPO 0103/0112 2000 SHRA BKN005 PROB30 TEMPO 0105/0111 VRB20G35KT 1000 TSRA BKN005 SCT025CB